sensor_id;sensor_type;location;lat;lon;timestamp;P1;durP1;ratioP1;P2;durP2;ratioP2
18526;SDS011;9393;42.158;24.748;2023-09-19T00:00:14;7.97;;;4.90;;
18526;SDS011;9393;42.158;24.748;2023-09-19T00:03:21;6.15;;;5.05;;
18526;SDS011;9393;42.158;24.748;2023-09-19T00:06:26;7.90;;;4.97;;
18526;SDS011;9393;42.158;24.748;2023-09-19T00:09:33;6.93;;;4.70;;
18526;SDS011;9393;42.158;24.748;2023-09-19T00:12:44;10.35;;;5.57;;
18526;SDS011;9393;42.158;24.748;2023-09-19T00:15:48;9.65;;;5.03;;
18526;SDS011;9393;42.158;24.748;2023-09-19T00:18:53;6.45;;;4.50;;
18526;SDS011;9393;42.158;24.748;2023-09-19T00:21:57;10.63;;;5.00;;
18526;SDS011;9393;42.158;24.748;2023-09-19T00:25:01;15.80;;;5.05;;
18526;SDS011;9393;42.158;24.748;2023-09-19T00:28:06;8.38;;;4.45;;
18526;SDS011;9393;42.158;24.748;2023-09-19T00:31:12;6.30;;;4.55;;
18526;SDS011;9393;42.158;24.748;2023-09-19T00:34:16;5.93;;;4.57;;
18526;SDS011;9393;42.158;24.748;2023-09-19T00:37:20;7.40;;;4.55;;
18526;SDS011;9393;42.158;24.748;2023-09-19T00:40:24;9.45;;;5.03;;
18526;SDS011;9393;42.158;24.748;2023-09-19T00:43:30;9.65;;;4.82;;
18526;SDS011;9393;42.158;24.748;2023-09-19T00:46:37;5.70;;;4.53;;
18526;SDS011;9393;42.158;24.748;2023-09-19T00:49:41;8.13;;;4.60;;
18526;SDS011;9393;42.158;24.748;2023-09-19T00:52:46;8.48;;;4.10;;
18526;SDS011;9393;42.158;24.748;2023-09-19T00:55:52;6.53;;;4.80;;
18526;SDS011;9393;42.158;24.748;2023-09-19T00:58:59;7.80;;;4.20;;
18526;SDS011;9393;42.158;24.748;2023-09-19T01:02:03;6.20;;;4.75;;
18526;SDS011;9393;42.158;24.748;2023-09-19T01:05:08;6.85;;;4.78;;
18526;SDS011;9393;42.158;24.748;2023-09-19T01:08:13;7.28;;;4.20;;
18526;SDS011;9393;42.158;24.748;2023-09-19T01:11:18;8.68;;;4.60;;
18526;SDS011;9393;42.158;24.748;2023-09-19T01:14:34;6.45;;;4.50;;
18526;SDS011;9393;42.158;24.748;2023-09-19T01:17:46;9.85;;;5.22;;
18526;SDS011;9393;42.158;24.748;2023-09-19T01:20:57;11.80;;;5.35;;
18526;SDS011;9393;42.158;24.748;2023-09-19T01:31:25;7.80;;;5.00;;
18526;SDS011;9393;42.158;24.748;2023-09-19T01:34:46;11.27;;;5.68;;
18526;SDS011;9393;42.158;24.748;2023-09-19T01:37:51;10.18;;;5.45;;
18526;SDS011;9393;42.158;24.748;2023-09-19T01:40:57;6.72;;;4.95;;
18526;SDS011;9393;42.158;24.748;2023-09-19T01:44:09;7.72;;;5.10;;
18526;SDS011;9393;42.158;24.748;2023-09-19T01:47:26;7.88;;;5.40;;
18526;SDS011;9393;42.158;24.748;2023-09-19T01:50:38;8.77;;;4.85;;
18526;SDS011;9393;42.158;24.748;2023-09-19T01:53:50;8.23;;;4.90;;
18526;SDS011;9393;42.158;24.748;2023-09-19T01:57:00;8.13;;;4.80;;
18526;SDS011;9393;42.158;24.748;2023-09-19T02:00:11;9.38;;;5.93;;
18526;SDS011;9393;42.158;24.748;2023-09-19T02:03:20;10.02;;;5.43;;
18526;SDS011;9393;42.158;24.748;2023-09-19T02:06:25;7.47;;;4.88;;
18526;SDS011;9393;42.158;24.748;2023-09-19T02:09:30;7.25;;;5.43;;
18526;SDS011;9393;42.158;24.748;2023-09-19T02:12:35;9.05;;;4.63;;
18526;SDS011;9393;42.158;24.748;2023-09-19T02:15:40;9.32;;;5.07;;
18526;SDS011;9393;42.158;24.748;2023-09-19T02:18:48;8.40;;;4.63;;
18526;SDS011;9393;42.158;24.748;2023-09-19T02:21:55;7.40;;;4.57;;
18526;SDS011;9393;42.158;24.748;2023-09-19T02:24:59;6.57;;;4.90;;
18526;SDS011;9393;42.158;24.748;2023-09-19T02:28:04;7.68;;;4.35;;
18526;SDS011;9393;42.158;24.748;2023-09-19T02:31:09;6.53;;;4.57;;
18526;SDS011;9393;42.158;24.748;2023-09-19T02:34:15;8.63;;;4.68;;
18526;SDS011;9393;42.158;24.748;2023-09-19T02:37:19;6.75;;;4.53;;
18526;SDS011;9393;42.158;24.748;2023-09-19T02:40:24;5.95;;;4.53;;
18526;SDS011;9393;42.158;24.748;2023-09-19T02:43:29;6.10;;;4.30;;
18526;SDS011;9393;42.158;24.748;2023-09-19T02:46:36;6.45;;;4.57;;
18526;SDS011;9393;42.158;24.748;2023-09-19T02:49:42;6.75;;;4.75;;
18526;SDS011;9393;42.158;24.748;2023-09-19T02:52:46;12.27;;;4.53;;
18526;SDS011;9393;42.158;24.748;2023-09-19T02:55:51;8.25;;;4.30;;
18526;SDS011;9393;42.158;24.748;2023-09-19T02:58:56;8.63;;;4.35;;
18526;SDS011;9393;42.158;24.748;2023-09-19T03:02:02;5.97;;;4.30;;
18526;SDS011;9393;42.158;24.748;2023-09-19T03:05:09;7.40;;;4.28;;
18526;SDS011;9393;42.158;24.748;2023-09-19T03:08:15;6.45;;;4.60;;
18526;SDS011;9393;42.158;24.748;2023-09-19T03:11:21;7.78;;;4.63;;
18526;SDS011;9393;42.158;24.748;2023-09-19T03:14:31;8.02;;;5.20;;
18526;SDS011;9393;42.158;24.748;2023-09-19T03:17:38;7.25;;;4.80;;
18526;SDS011;9393;42.158;24.748;2023-09-19T03:20:53;6.27;;;4.60;;
18526;SDS011;9393;42.158;24.748;2023-09-19T03:23:58;6.30;;;4.80;;
18526;SDS011;9393;42.158;24.748;2023-09-19T03:27:02;6.80;;;4.60;;
18526;SDS011;9393;42.158;24.748;2023-09-19T03:30:07;10.50;;;5.40;;
18526;SDS011;9393;42.158;24.748;2023-09-19T03:33:16;8.82;;;4.90;;
18526;SDS011;9393;42.158;24.748;2023-09-19T03:36:22;9.25;;;5.75;;
18526;SDS011;9393;42.158;24.748;2023-09-19T03:39:27;12.53;;;5.27;;
18526;SDS011;9393;42.158;24.748;2023-09-19T03:42:32;7.47;;;5.30;;
18526;SDS011;9393;42.158;24.748;2023-09-19T03:45:38;9.52;;;5.40;;
18526;SDS011;9393;42.158;24.748;2023-09-19T03:48:42;9.65;;;5.65;;
18526;SDS011;9393;42.158;24.748;2023-09-19T03:51:48;9.60;;;5.07;;
18526;SDS011;9393;42.158;24.748;2023-09-19T03:54:52;12.87;;;5.70;;
18526;SDS011;9393;42.158;24.748;2023-09-19T03:57:57;10.80;;;5.37;;
18526;SDS011;9393;42.158;24.748;2023-09-19T04:01:01;7.73;;;5.40;;
18526;SDS011;9393;42.158;24.748;2023-09-19T04:04:05;9.20;;;5.60;;
18526;SDS011;9393;42.158;24.748;2023-09-19T04:07:12;8.47;;;5.40;;
18526;SDS011;9393;42.158;24.748;2023-09-19T04:10:17;9.30;;;6.20;;
18526;SDS011;9393;42.158;24.748;2023-09-19T04:13:25;10.37;;;6.47;;
18526;SDS011;9393;42.158;24.748;2023-09-19T04:16:30;12.93;;;6.27;;
18526;SDS011;9393;42.158;24.748;2023-09-19T04:19:34;11.77;;;6.70;;
18526;SDS011;9393;42.158;24.748;2023-09-19T04:22:41;13.87;;;5.73;;
18526;SDS011;9393;42.158;24.748;2023-09-19T04:25:45;9.73;;;5.90;;
18526;SDS011;9393;42.158;24.748;2023-09-19T04:28:50;9.07;;;5.43;;
18526;SDS011;9393;42.158;24.748;2023-09-19T04:31:54;10.20;;;5.97;;
18526;SDS011;9393;42.158;24.748;2023-09-19T04:34:58;9.70;;;5.67;;
18526;SDS011;9393;42.158;24.748;2023-09-19T04:38:06;11.07;;;6.30;;
18526;SDS011;9393;42.158;24.748;2023-09-19T04:41:11;10.17;;;5.27;;
18526;SDS011;9393;42.158;24.748;2023-09-19T04:44:15;7.43;;;4.97;;
18526;SDS011;9393;42.158;24.748;2023-09-19T04:47:20;6.97;;;4.60;;
18526;SDS011;9393;42.158;24.748;2023-09-19T04:50:24;10.63;;;5.23;;
18526;SDS011;9393;42.158;24.748;2023-09-19T04:53:31;8.33;;;5.57;;
18526;SDS011;9393;42.158;24.748;2023-09-19T04:56:35;9.20;;;5.20;;
18526;SDS011;9393;42.158;24.748;2023-09-19T04:59:42;8.80;;;4.33;;
18526;SDS011;9393;42.158;24.748;2023-09-19T05:02:48;7.17;;;4.37;;
18526;SDS011;9393;42.158;24.748;2023-09-19T05:05:53;9.47;;;5.07;;
18526;SDS011;9393;42.158;24.748;2023-09-19T05:08:58;7.47;;;5.10;;
18526;SDS011;9393;42.158;24.748;2023-09-19T05:12:03;7.20;;;5.20;;
18526;SDS011;9393;42.158;24.748;2023-09-19T05:15:07;9.17;;;5.10;;
18526;SDS011;9393;42.158;24.748;2023-09-19T05:18:12;8.00;;;5.07;;
18526;SDS011;9393;42.158;24.748;2023-09-19T05:21:16;9.65;;;4.88;;
18526;SDS011;9393;42.158;24.748;2023-09-19T05:24:22;10.63;;;5.37;;
18526;SDS011;9393;42.158;24.748;2023-09-19T05:27:28;11.93;;;5.17;;
18526;SDS011;9393;42.158;24.748;2023-09-19T05:30:33;9.57;;;5.20;;
18526;SDS011;9393;42.158;24.748;2023-09-19T05:33:38;10.90;;;5.55;;
18526;SDS011;9393;42.158;24.748;2023-09-19T05:36:42;7.30;;;4.97;;
18526;SDS011;9393;42.158;24.748;2023-09-19T05:39:47;8.85;;;5.75;;
18526;SDS011;9393;42.158;24.748;2023-09-19T05:42:52;11.70;;;5.15;;
18526;SDS011;9393;42.158;24.748;2023-09-19T05:45:55;12.68;;;6.13;;
18526;SDS011;9393;42.158;24.748;2023-09-19T05:49:00;10.70;;;5.45;;
18526;SDS011;9393;42.158;24.748;2023-09-19T05:52:05;14.32;;;5.75;;
18526;SDS011;9393;42.158;24.748;2023-09-19T05:55:11;14.10;;;6.20;;
18526;SDS011;9393;42.158;24.748;2023-09-19T05:58:15;10.18;;;5.20;;
18526;SDS011;9393;42.158;24.748;2023-09-19T06:01:20;7.90;;;5.00;;
18526;SDS011;9393;42.158;24.748;2023-09-19T06:04:24;10.88;;;5.20;;
18526;SDS011;9393;42.158;24.748;2023-09-19T06:07:28;13.23;;;7.10;;
18526;SDS011;9393;42.158;24.748;2023-09-19T06:10:40;19.35;;;9.40;;
18526;SDS011;9393;42.158;24.748;2023-09-19T06:13:44;14.55;;;5.80;;
18526;SDS011;9393;42.158;24.748;2023-09-19T06:16:49;9.93;;;6.22;;
18526;SDS011;9393;42.158;24.748;2023-09-19T06:19:56;9.23;;;5.22;;
18526;SDS011;9393;42.158;24.748;2023-09-19T06:23:02;9.38;;;6.35;;
18526;SDS011;9393;42.158;24.748;2023-09-19T06:26:08;8.77;;;5.57;;
18526;SDS011;9393;42.158;24.748;2023-09-19T06:29:12;10.18;;;5.53;;
18526;SDS011;9393;42.158;24.748;2023-09-19T06:32:18;10.73;;;6.78;;
18526;SDS011;9393;42.158;24.748;2023-09-19T06:35:23;8.30;;;5.55;;
18526;SDS011;9393;42.158;24.748;2023-09-19T06:38:29;9.70;;;5.80;;
18526;SDS011;9393;42.158;24.748;2023-09-19T06:41:35;10.25;;;5.45;;
18526;SDS011;9393;42.158;24.748;2023-09-19T06:44:45;13.80;;;7.50;;
18526;SDS011;9393;42.158;24.748;2023-09-19T06:47:50;9.20;;;5.22;;
18526;SDS011;9393;42.158;24.748;2023-09-19T06:50:56;8.65;;;5.22;;
18526;SDS011;9393;42.158;24.748;2023-09-19T06:54:06;7.45;;;5.35;;
18526;SDS011;9393;42.158;24.748;2023-09-19T06:57:14;9.52;;;4.57;;
18526;SDS011;9393;42.158;24.748;2023-09-19T07:00:18;9.27;;;5.10;;
18526;SDS011;9393;42.158;24.748;2023-09-19T07:03:24;7.78;;;5.32;;
18526;SDS011;9393;42.158;24.748;2023-09-19T07:06:31;14.32;;;5.22;;
18526;SDS011;9393;42.158;24.748;2023-09-19T07:09:35;10.38;;;4.50;;
18526;SDS011;9393;42.158;24.748;2023-09-19T07:12:40;9.18;;;4.85;;
18526;SDS011;9393;42.158;24.748;2023-09-19T07:15:45;7.65;;;5.22;;
18526;SDS011;9393;42.158;24.748;2023-09-19T07:18:52;6.25;;;4.45;;
18526;SDS011;9393;42.158;24.748;2023-09-19T07:21:57;10.55;;;4.90;;
18526;SDS011;9393;42.158;24.748;2023-09-19T07:25:01;9.05;;;4.68;;
18526;SDS011;9393;42.158;24.748;2023-09-19T07:28:07;8.70;;;5.07;;
18526;SDS011;9393;42.158;24.748;2023-09-19T07:31:11;6.38;;;4.43;;
18526;SDS011;9393;42.158;24.748;2023-09-19T07:34:16;8.30;;;4.93;;
18526;SDS011;9393;42.158;24.748;2023-09-19T07:37:20;8.68;;;4.40;;
18526;SDS011;9393;42.158;24.748;2023-09-19T07:40:26;18.70;;;11.55;;
18526;SDS011;9393;42.158;24.748;2023-09-19T07:43:32;12.45;;;5.32;;
18526;SDS011;9393;42.158;24.748;2023-09-19T07:46:36;11.13;;;4.30;;
18526;SDS011;9393;42.158;24.748;2023-09-19T07:49:40;8.25;;;4.25;;
18526;SDS011;9393;42.158;24.748;2023-09-19T07:52:50;7.28;;;4.35;;
18526;SDS011;9393;42.158;24.748;2023-09-19T07:56:01;8.18;;;4.43;;
18526;SDS011;9393;42.158;24.748;2023-09-19T07:59:08;8.93;;;4.90;;
18526;SDS011;9393;42.158;24.748;2023-09-19T08:02:14;7.68;;;4.07;;
18526;SDS011;9393;42.158;24.748;2023-09-19T08:05:23;6.22;;;4.35;;
18526;SDS011;9393;42.158;24.748;2023-09-19T08:08:32;6.63;;;4.25;;
18526;SDS011;9393;42.158;24.748;2023-09-19T08:11:41;8.43;;;3.92;;
18526;SDS011;9393;42.158;24.748;2023-09-19T08:14:49;8.07;;;4.55;;
18526;SDS011;9393;42.158;24.748;2023-09-19T08:17:53;7.25;;;4.43;;
18526;SDS011;9393;42.158;24.748;2023-09-19T08:20:57;7.55;;;4.80;;
18526;SDS011;9393;42.158;24.748;2023-09-19T08:24:02;7.13;;;4.25;;
18526;SDS011;9393;42.158;24.748;2023-09-19T08:27:07;8.63;;;4.97;;
18526;SDS011;9393;42.158;24.748;2023-09-19T08:30:14;8.85;;;4.88;;
18526;SDS011;9393;42.158;24.748;2023-09-19T08:33:20;9.95;;;4.75;;
18526;SDS011;9393;42.158;24.748;2023-09-19T08:36:24;10.25;;;4.30;;
18526;SDS011;9393;42.158;24.748;2023-09-19T08:39:28;7.25;;;3.85;;
18526;SDS011;9393;42.158;24.748;2023-09-19T08:42:46;7.93;;;4.75;;
18526;SDS011;9393;42.158;24.748;2023-09-19T08:45:52;7.13;;;4.35;;
18526;SDS011;9393;42.158;24.748;2023-09-19T08:49:03;7.88;;;4.72;;
18526;SDS011;9393;42.158;24.748;2023-09-19T08:52:10;8.18;;;4.47;;
18526;SDS011;9393;42.158;24.748;2023-09-19T08:55:23;6.53;;;4.45;;
18526;SDS011;9393;42.158;24.748;2023-09-19T08:58:31;11.80;;;5.40;;
18526;SDS011;9393;42.158;24.748;2023-09-19T09:01:44;12.73;;;4.93;;
18526;SDS011;9393;42.158;24.748;2023-09-19T09:04:49;8.10;;;4.50;;
18526;SDS011;9393;42.158;24.748;2023-09-19T09:07:54;13.05;;;4.57;;
18526;SDS011;9393;42.158;24.748;2023-09-19T09:10:59;9.93;;;4.38;;
18526;SDS011;9393;42.158;24.748;2023-09-19T09:14:04;8.20;;;4.45;;
18526;SDS011;9393;42.158;24.748;2023-09-19T09:17:14;8.32;;;5.13;;
18526;SDS011;9393;42.158;24.748;2023-09-19T09:20:18;10.43;;;4.93;;
18526;SDS011;9393;42.158;24.748;2023-09-19T09:23:23;9.52;;;5.07;;
18526;SDS011;9393;42.158;24.748;2023-09-19T09:26:42;8.18;;;4.53;;
18526;SDS011;9393;42.158;24.748;2023-09-19T09:29:47;19.40;;;5.15;;
18526;SDS011;9393;42.158;24.748;2023-09-19T09:33:00;5.53;;;4.72;;
18526;SDS011;9393;42.158;24.748;2023-09-19T09:36:14;8.50;;;4.50;;
18526;SDS011;9393;42.158;24.748;2023-09-19T09:39:29;5.93;;;4.10;;
18526;SDS011;9393;42.158;24.748;2023-09-19T09:42:36;8.70;;;5.20;;
18526;SDS011;9393;42.158;24.748;2023-09-19T09:45:41;8.23;;;4.53;;
18526;SDS011;9393;42.158;24.748;2023-09-19T09:48:57;6.32;;;5.10;;
18526;SDS011;9393;42.158;24.748;2023-09-19T09:52:27;10.68;;;5.03;;
18526;SDS011;9393;42.158;24.748;2023-09-19T09:59:02;7.35;;;4.07;;
18526;SDS011;9393;42.158;24.748;2023-09-19T10:02:07;6.97;;;3.90;;
18526;SDS011;9393;42.158;24.748;2023-09-19T10:05:17;6.68;;;4.47;;
18526;SDS011;9393;42.158;24.748;2023-09-19T10:08:24;8.55;;;4.88;;
18526;SDS011;9393;42.158;24.748;2023-09-19T10:11:33;7.65;;;4.63;;
18526;SDS011;9393;42.158;24.748;2023-09-19T10:14:39;11.95;;;4.88;;
18526;SDS011;9393;42.158;24.748;2023-09-19T10:17:49;11.50;;;4.38;;
18526;SDS011;9393;42.158;24.748;2023-09-19T10:20:58;11.75;;;5.50;;
18526;SDS011;9393;42.158;24.748;2023-09-19T10:24:06;8.13;;;3.92;;
18526;SDS011;9393;42.158;24.748;2023-09-19T10:27:11;7.03;;;4.00;;
18526;SDS011;9393;42.158;24.748;2023-09-19T10:30:18;15.30;;;5.68;;
18526;SDS011;9393;42.158;24.748;2023-09-19T10:33:25;10.55;;;6.78;;
18526;SDS011;9393;42.158;24.748;2023-09-19T10:36:33;5.40;;;4.20;;
18526;SDS011;9393;42.158;24.748;2023-09-19T10:39:39;6.70;;;4.13;;
18526;SDS011;9393;42.158;24.748;2023-09-19T10:42:43;7.47;;;4.50;;
18526;SDS011;9393;42.158;24.748;2023-09-19T10:45:53;7.70;;;4.10;;
18526;SDS011;9393;42.158;24.748;2023-09-19T10:49:04;5.35;;;3.83;;
18526;SDS011;9393;42.158;24.748;2023-09-19T10:52:10;9.27;;;4.35;;
18526;SDS011;9393;42.158;24.748;2023-09-19T10:55:17;6.45;;;4.72;;
18526;SDS011;9393;42.158;24.748;2023-09-19T10:58:29;7.75;;;4.50;;
18526;SDS011;9393;42.158;24.748;2023-09-19T11:01:43;8.80;;;4.28;;
18526;SDS011;9393;42.158;24.748;2023-09-19T11:05:17;7.60;;;4.32;;
18526;SDS011;9393;42.158;24.748;2023-09-19T11:08:24;7.53;;;4.63;;
18526;SDS011;9393;42.158;24.748;2023-09-19T11:11:41;7.00;;;3.95;;
18526;SDS011;9393;42.158;24.748;2023-09-19T11:14:48;10.80;;;4.57;;
18526;SDS011;9393;42.158;24.748;2023-09-19T11:17:54;11.25;;;5.25;;
18526;SDS011;9393;42.158;24.748;2023-09-19T11:24:37;5.07;;;4.45;;
18526;SDS011;9393;42.158;24.748;2023-09-19T11:27:49;6.70;;;4.05;;
18526;SDS011;9393;42.158;24.748;2023-09-19T11:31:41;6.78;;;5.13;;
18526;SDS011;9393;42.158;24.748;2023-09-19T11:34:47;5.55;;;4.47;;
18526;SDS011;9393;42.158;24.748;2023-09-19T11:38:01;6.60;;;4.45;;
18526;SDS011;9393;42.158;24.748;2023-09-19T11:44:43;8.15;;;4.10;;
18526;SDS011;9393;42.158;24.748;2023-09-19T11:47:47;6.63;;;4.70;;
18526;SDS011;9393;42.158;24.748;2023-09-19T11:50:52;7.50;;;4.10;;
18526;SDS011;9393;42.158;24.748;2023-09-19T11:53:57;5.30;;;3.83;;
18526;SDS011;9393;42.158;24.748;2023-09-19T11:57:03;6.35;;;4.72;;
18526;SDS011;9393;42.158;24.748;2023-09-19T12:00:13;11.70;;;5.60;;
18526;SDS011;9393;42.158;24.748;2023-09-19T12:03:21;8.95;;;4.25;;
18526;SDS011;9393;42.158;24.748;2023-09-19T12:06:26;5.80;;;4.55;;
18526;SDS011;9393;42.158;24.748;2023-09-19T12:09:34;5.60;;;4.22;;
18526;SDS011;9393;42.158;24.748;2023-09-19T12:12:40;5.80;;;4.00;;
18526;SDS011;9393;42.158;24.748;2023-09-19T12:15:51;6.13;;;4.43;;
18526;SDS011;9393;42.158;24.748;2023-09-19T12:18:55;7.07;;;4.55;;
18526;SDS011;9393;42.158;24.748;2023-09-19T12:22:01;8.88;;;4.57;;
18526;SDS011;9393;42.158;24.748;2023-09-19T12:25:07;5.63;;;4.32;;
18526;SDS011;9393;42.158;24.748;2023-09-19T12:28:14;6.82;;;4.65;;
18526;SDS011;9393;42.158;24.748;2023-09-19T12:31:19;7.57;;;4.43;;
18526;SDS011;9393;42.158;24.748;2023-09-19T12:34:23;7.60;;;4.03;;
18526;SDS011;9393;42.158;24.748;2023-09-19T12:37:29;9.48;;;4.10;;
18526;SDS011;9393;42.158;24.748;2023-09-19T12:40:36;7.07;;;4.35;;
18526;SDS011;9393;42.158;24.748;2023-09-19T12:43:45;8.00;;;4.00;;
18526;SDS011;9393;42.158;24.748;2023-09-19T12:46:53;7.68;;;4.40;;
18526;SDS011;9393;42.158;24.748;2023-09-19T12:50:11;11.57;;;3.88;;
18526;SDS011;9393;42.158;24.748;2023-09-19T12:53:24;7.05;;;4.57;;
18526;SDS011;9393;42.158;24.748;2023-09-19T12:56:39;7.35;;;4.63;;
18526;SDS011;9393;42.158;24.748;2023-09-19T13:03:17;6.93;;;4.47;;
18526;SDS011;9393;42.158;24.748;2023-09-19T13:06:35;7.55;;;4.25;;
18526;SDS011;9393;42.158;24.748;2023-09-19T13:10:01;7.97;;;4.60;;
18526;SDS011;9393;42.158;24.748;2023-09-19T13:13:22;8.18;;;4.57;;
18526;SDS011;9393;42.158;24.748;2023-09-19T13:16:32;7.85;;;4.15;;
18526;SDS011;9393;42.158;24.748;2023-09-19T13:19:40;6.03;;;4.15;;
18526;SDS011;9393;42.158;24.748;2023-09-19T13:22:51;7.70;;;4.45;;
18526;SDS011;9393;42.158;24.748;2023-09-19T13:25:56;12.55;;;4.43;;
18526;SDS011;9393;42.158;24.748;2023-09-19T13:29:01;5.93;;;4.30;;
18526;SDS011;9393;42.158;24.748;2023-09-19T13:32:07;8.57;;;4.18;;
18526;SDS011;9393;42.158;24.748;2023-09-19T13:35:13;7.70;;;4.38;;
18526;SDS011;9393;42.158;24.748;2023-09-19T13:38:18;5.68;;;4.13;;
18526;SDS011;9393;42.158;24.748;2023-09-19T13:41:24;8.40;;;3.97;;
18526;SDS011;9393;42.158;24.748;2023-09-19T13:44:28;8.23;;;4.07;;
18526;SDS011;9393;42.158;24.748;2023-09-19T13:47:33;7.95;;;4.03;;
18526;SDS011;9393;42.158;24.748;2023-09-19T13:50:40;9.50;;;3.92;;
18526;SDS011;9393;42.158;24.748;2023-09-19T13:53:45;8.57;;;4.43;;
18526;SDS011;9393;42.158;24.748;2023-09-19T13:56:49;6.68;;;4.25;;
18526;SDS011;9393;42.158;24.748;2023-09-19T13:59:53;7.13;;;3.90;;
18526;SDS011;9393;42.158;24.748;2023-09-19T14:02:59;6.55;;;3.85;;
18526;SDS011;9393;42.158;24.748;2023-09-19T14:06:03;4.40;;;3.63;;
18526;SDS011;9393;42.158;24.748;2023-09-19T14:09:09;9.93;;;4.10;;
18526;SDS011;9393;42.158;24.748;2023-09-19T14:12:15;4.82;;;3.67;;
18526;SDS011;9393;42.158;24.748;2023-09-19T14:15:19;6.40;;;3.80;;
18526;SDS011;9393;42.158;24.748;2023-09-19T14:18:32;4.18;;;3.33;;
18526;SDS011;9393;42.158;24.748;2023-09-19T14:21:36;5.78;;;3.72;;
18526;SDS011;9393;42.158;24.748;2023-09-19T14:24:41;6.85;;;4.45;;
18526;SDS011;9393;42.158;24.748;2023-09-19T14:27:46;6.50;;;4.32;;
18526;SDS011;9393;42.158;24.748;2023-09-19T14:30:51;8.93;;;5.28;;
18526;SDS011;9393;42.158;24.748;2023-09-19T14:33:56;5.15;;;4.13;;
18526;SDS011;9393;42.158;24.748;2023-09-19T14:37:01;8.88;;;4.47;;
18526;SDS011;9393;42.158;24.748;2023-09-19T14:40:06;6.70;;;4.03;;
18526;SDS011;9393;42.158;24.748;2023-09-19T14:43:12;9.20;;;4.75;;
18526;SDS011;9393;42.158;24.748;2023-09-19T14:46:16;11.10;;;4.53;;
18526;SDS011;9393;42.158;24.748;2023-09-19T14:49:22;8.45;;;4.75;;
18526;SDS011;9393;42.158;24.748;2023-09-19T14:52:27;7.20;;;4.00;;
18526;SDS011;9393;42.158;24.748;2023-09-19T14:55:31;8.23;;;4.57;;
18526;SDS011;9393;42.158;24.748;2023-09-19T14:58:43;7.75;;;4.88;;
18526;SDS011;9393;42.158;24.748;2023-09-19T15:01:49;11.40;;;5.15;;
18526;SDS011;9393;42.158;24.748;2023-09-19T15:04:54;8.07;;;4.50;;
18526;SDS011;9393;42.158;24.748;2023-09-19T15:07:59;6.18;;;4.90;;
18526;SDS011;9393;42.158;24.748;2023-09-19T15:11:04;8.40;;;4.55;;
18526;SDS011;9393;42.158;24.748;2023-09-19T15:14:09;5.78;;;4.20;;
18526;SDS011;9393;42.158;24.748;2023-09-19T15:17:13;10.63;;;4.50;;
18526;SDS011;9393;42.158;24.748;2023-09-19T15:20:19;7.90;;;4.40;;
18526;SDS011;9393;42.158;24.748;2023-09-19T15:23:23;7.85;;;4.32;;
18526;SDS011;9393;42.158;24.748;2023-09-19T15:26:33;10.02;;;4.72;;
18526;SDS011;9393;42.158;24.748;2023-09-19T15:29:41;7.60;;;4.38;;
18526;SDS011;9393;42.158;24.748;2023-09-19T15:32:46;12.18;;;4.72;;
18526;SDS011;9393;42.158;24.748;2023-09-19T15:35:52;7.75;;;4.70;;
18526;SDS011;9393;42.158;24.748;2023-09-19T15:39:05;8.75;;;4.72;;
18526;SDS011;9393;42.158;24.748;2023-09-19T15:42:13;12.57;;;4.95;;
18526;SDS011;9393;42.158;24.748;2023-09-19T15:45:18;10.38;;;5.47;;
18526;SDS011;9393;42.158;24.748;2023-09-19T15:48:22;9.07;;;4.30;;
18526;SDS011;9393;42.158;24.748;2023-09-19T15:51:27;11.32;;;4.80;;
18526;SDS011;9393;42.158;24.748;2023-09-19T15:54:31;8.02;;;4.72;;
18526;SDS011;9393;42.158;24.748;2023-09-19T15:57:37;8.98;;;5.10;;
18526;SDS011;9393;42.158;24.748;2023-09-19T16:00:42;9.65;;;5.10;;
18526;SDS011;9393;42.158;24.748;2023-09-19T16:03:46;7.45;;;5.05;;
18526;SDS011;9393;42.158;24.748;2023-09-19T16:06:53;8.50;;;4.68;;
18526;SDS011;9393;42.158;24.748;2023-09-19T16:09:57;9.52;;;5.82;;
18526;SDS011;9393;42.158;24.748;2023-09-19T16:13:02;8.60;;;5.03;;
18526;SDS011;9393;42.158;24.748;2023-09-19T16:16:07;10.25;;;5.40;;
18526;SDS011;9393;42.158;24.748;2023-09-19T16:19:14;10.45;;;5.18;;
18526;SDS011;9393;42.158;24.748;2023-09-19T16:22:20;8.27;;;4.90;;
18526;SDS011;9393;42.158;24.748;2023-09-19T16:25:24;8.77;;;4.30;;
18526;SDS011;9393;42.158;24.748;2023-09-19T16:28:28;9.95;;;4.60;;
18526;SDS011;9393;42.158;24.748;2023-09-19T16:31:32;5.63;;;3.97;;
18526;SDS011;9393;42.158;24.748;2023-09-19T16:34:37;13.20;;;5.43;;
18526;SDS011;9393;42.158;24.748;2023-09-19T16:37:43;9.13;;;5.32;;
18526;SDS011;9393;42.158;24.748;2023-09-19T16:40:52;10.98;;;5.90;;
18526;SDS011;9393;42.158;24.748;2023-09-19T16:43:56;13.38;;;5.95;;
18526;SDS011;9393;42.158;24.748;2023-09-19T16:47:01;10.65;;;5.85;;
18526;SDS011;9393;42.158;24.748;2023-09-19T16:50:06;12.30;;;6.05;;
18526;SDS011;9393;42.158;24.748;2023-09-19T16:53:13;11.60;;;5.90;;
18526;SDS011;9393;42.158;24.748;2023-09-19T16:56:19;11.90;;;5.68;;
18526;SDS011;9393;42.158;24.748;2023-09-19T16:59:23;12.20;;;6.80;;
18526;SDS011;9393;42.158;24.748;2023-09-19T17:02:27;17.15;;;8.15;;
18526;SDS011;9393;42.158;24.748;2023-09-19T17:05:32;15.85;;;8.50;;
18526;SDS011;9393;42.158;24.748;2023-09-19T17:08:37;20.60;;;8.75;;
18526;SDS011;9393;42.158;24.748;2023-09-19T17:11:42;13.90;;;6.90;;
18526;SDS011;9393;42.158;24.748;2023-09-19T17:14:48;12.75;;;7.70;;
18526;SDS011;9393;42.158;24.748;2023-09-19T17:17:52;19.20;;;8.48;;
18526;SDS011;9393;42.158;24.748;2023-09-19T17:20:56;21.98;;;10.13;;
18526;SDS011;9393;42.158;24.748;2023-09-19T17:24:04;28.15;;;11.73;;
18526;SDS011;9393;42.158;24.748;2023-09-19T17:27:10;28.60;;;11.65;;
18526;SDS011;9393;42.158;24.748;2023-09-19T17:30:14;23.10;;;10.57;;
18526;SDS011;9393;42.158;24.748;2023-09-19T17:33:18;25.10;;;9.95;;
18526;SDS011;9393;42.158;24.748;2023-09-19T17:36:23;33.83;;;16.45;;
18526;SDS011;9393;42.158;24.748;2023-09-19T17:39:30;21.85;;;10.82;;
18526;SDS011;9393;42.158;24.748;2023-09-19T17:42:35;24.02;;;9.50;;
18526;SDS011;9393;42.158;24.748;2023-09-19T17:45:39;17.20;;;8.98;;
18526;SDS011;9393;42.158;24.748;2023-09-19T17:48:43;17.90;;;9.32;;
18526;SDS011;9393;42.158;24.748;2023-09-19T17:51:49;19.88;;;8.50;;
18526;SDS011;9393;42.158;24.748;2023-09-19T17:54:54;23.75;;;9.32;;
18526;SDS011;9393;42.158;24.748;2023-09-19T17:58:03;17.92;;;10.23;;
18526;SDS011;9393;42.158;24.748;2023-09-19T18:01:08;17.17;;;9.98;;
18526;SDS011;9393;42.158;24.748;2023-09-19T18:04:13;25.63;;;9.90;;
18526;SDS011;9393;42.158;24.748;2023-09-19T18:07:17;21.13;;;10.00;;
18526;SDS011;9393;42.158;24.748;2023-09-19T18:10:22;25.33;;;10.68;;
18526;SDS011;9393;42.158;24.748;2023-09-19T18:13:27;25.15;;;9.52;;
18526;SDS011;9393;42.158;24.748;2023-09-19T18:16:31;23.13;;;10.98;;
18526;SDS011;9393;42.158;24.748;2023-09-19T18:19:35;18.27;;;10.45;;
18526;SDS011;9393;42.158;24.748;2023-09-19T18:22:40;20.27;;;10.40;;
18526;SDS011;9393;42.158;24.748;2023-09-19T18:25:46;24.10;;;10.48;;
18526;SDS011;9393;42.158;24.748;2023-09-19T18:28:50;23.33;;;10.90;;
18526;SDS011;9393;42.158;24.748;2023-09-19T18:31:55;21.10;;;11.27;;
18526;SDS011;9393;42.158;24.748;2023-09-19T18:35:27;20.40;;;11.38;;
18526;SDS011;9393;42.158;24.748;2023-09-19T18:38:33;26.45;;;13.10;;
18526;SDS011;9393;42.158;24.748;2023-09-19T18:41:44;23.45;;;13.02;;
18526;SDS011;9393;42.158;24.748;2023-09-19T18:44:48;23.90;;;11.15;;
18526;SDS011;9393;42.158;24.748;2023-09-19T18:47:52;20.73;;;10.68;;
18526;SDS011;9393;42.158;24.748;2023-09-19T18:50:56;22.33;;;11.85;;
18526;SDS011;9393;42.158;24.748;2023-09-19T18:54:01;26.85;;;12.27;;
18526;SDS011;9393;42.158;24.748;2023-09-19T18:57:16;24.45;;;13.63;;
18526;SDS011;9393;42.158;24.748;2023-09-19T19:00:20;22.35;;;14.70;;